sensor_id;sensor_type;location;lat;lon;timestamp;temperature;humidity
254;DHT22;590;48.772;8.846;2023-07-08T00:01:11;18.80;31.60
254;DHT22;590;48.772;8.846;2023-07-08T00:03:40;18.70;33.40
254;DHT22;590;48.772;8.846;2023-07-08T00:06:11;18.70;34.20
254;DHT22;590;48.772;8.846;2023-07-08T00:08:40;18.60;33.80
254;DHT22;590;48.772;8.846;2023-07-08T00:11:10;18.50;33.50
254;DHT22;590;48.772;8.846;2023-07-08T00:13:39;18.50;32.60
254;DHT22;590;48.772;8.846;2023-07-08T00:16:10;18.50;31.10
254;DHT22;590;48.772;8.846;2023-07-08T00:18:39;18.50;29.70
254;DHT22;590;48.772;8.846;2023-07-08T00:21:09;18.60;30.00
254;DHT22;590;48.772;8.846;2023-07-08T00:23:44;18.60;29.80
254;DHT22;590;48.772;8.846;2023-07-08T00:26:17;18.70;29.20
254;DHT22;590;48.772;8.846;2023-07-08T00:28:46;18.80;29.40
254;DHT22;590;48.772;8.846;2023-07-08T00:31:15;18.80;29.40
254;DHT22;590;48.772;8.846;2023-07-08T00:33:44;18.80;30.30
254;DHT22;590;48.772;8.846;2023-07-08T00:36:13;18.70;31.70
254;DHT22;590;48.772;8.846;2023-07-08T00:38:42;18.60;33.30
254;DHT22;590;48.772;8.846;2023-07-08T00:41:16;18.50;33.60
254;DHT22;590;48.772;8.846;2023-07-08T00:43:47;18.40;35.00
254;DHT22;590;48.772;8.846;2023-07-08T00:46:29;18.40;35.00
254;DHT22;590;48.772;8.846;2023-07-08T00:49:20;18.30;35.20
254;DHT22;590;48.772;8.846;2023-07-08T00:51:49;18.30;36.10
254;DHT22;590;48.772;8.846;2023-07-08T00:54:18;18.20;37.70
254;DHT22;590;48.772;8.846;2023-07-08T00:56:49;18.20;37.30
254;DHT22;590;48.772;8.846;2023-07-08T00:59:24;18.10;36.60
254;DHT22;590;48.772;8.846;2023-07-08T01:01:55;18.10;36.20
254;DHT22;590;48.772;8.846;2023-07-08T01:04:27;18.10;35.50
254;DHT22;590;48.772;8.846;2023-07-08T01:06:58;18.10;35.80
254;DHT22;590;48.772;8.846;2023-07-08T01:09:33;18.00;36.30
254;DHT22;590;48.772;8.846;2023-07-08T01:12:04;18.10;36.60
254;DHT22;590;48.772;8.846;2023-07-08T01:14:35;18.10;36.60
254;DHT22;590;48.772;8.846;2023-07-08T01:17:06;18.10;36.00
254;DHT22;590;48.772;8.846;2023-07-08T01:19:34;18.10;35.30
254;DHT22;590;48.772;8.846;2023-07-08T01:22:07;18.10;34.10
254;DHT22;590;48.772;8.846;2023-07-08T01:24:37;18.10;34.20
254;DHT22;590;48.772;8.846;2023-07-08T01:27:10;18.00;35.00
254;DHT22;590;48.772;8.846;2023-07-08T01:29:38;17.90;36.00
254;DHT22;590;48.772;8.846;2023-07-08T01:32:09;17.80;36.20
254;DHT22;590;48.772;8.846;2023-07-08T01:34:40;17.70;37.20
254;DHT22;590;48.772;8.846;2023-07-08T01:37:11;17.70;37.60
254;DHT22;590;48.772;8.846;2023-07-08T01:39:39;17.60;38.20
254;DHT22;590;48.772;8.846;2023-07-08T01:42:08;17.50;40.80
254;DHT22;590;48.772;8.846;2023-07-08T01:44:36;17.50;40.20
254;DHT22;590;48.772;8.846;2023-07-08T01:47:08;17.50;39.80
254;DHT22;590;48.772;8.846;2023-07-08T01:49:40;17.40;39.50
254;DHT22;590;48.772;8.846;2023-07-08T01:52:11;17.40;38.50
254;DHT22;590;48.772;8.846;2023-07-08T01:54:40;17.40;39.60
254;DHT22;590;48.772;8.846;2023-07-08T01:57:08;17.30;39.50
254;DHT22;590;48.772;8.846;2023-07-08T01:59:36;17.20;40.20
254;DHT22;590;48.772;8.846;2023-07-08T02:02:04;17.20;40.30
254;DHT22;590;48.772;8.846;2023-07-08T02:04:32;17.10;41.50
254;DHT22;590;48.772;8.846;2023-07-08T02:07:00;17.10;42.80
254;DHT22;590;48.772;8.846;2023-07-08T02:09:30;17.20;42.00
254;DHT22;590;48.772;8.846;2023-07-08T02:11:58;17.10;41.00
254;DHT22;590;48.772;8.846;2023-07-08T02:14:26;17.10;42.40
254;DHT22;590;48.772;8.846;2023-07-08T02:16:54;17.20;43.30
254;DHT22;590;48.772;8.846;2023-07-08T02:19:22;17.20;43.20
254;DHT22;590;48.772;8.846;2023-07-08T02:21:50;17.20;42.40
254;DHT22;590;48.772;8.846;2023-07-08T02:24:19;17.20;43.80
254;DHT22;590;48.772;8.846;2023-07-08T02:26:50;17.10;45.40
254;DHT22;590;48.772;8.846;2023-07-08T02:29:18;17.00;45.80
254;DHT22;590;48.772;8.846;2023-07-08T02:31:46;17.10;46.30
254;DHT22;590;48.772;8.846;2023-07-08T02:34:14;17.00;46.30
254;DHT22;590;48.772;8.846;2023-07-08T02:36:42;17.00;44.80
254;DHT22;590;48.772;8.846;2023-07-08T02:39:10;17.00;43.80
254;DHT22;590;48.772;8.846;2023-07-08T02:41:38;17.10;44.20
254;DHT22;590;48.772;8.846;2023-07-08T02:44:08;17.10;43.20
254;DHT22;590;48.772;8.846;2023-07-08T02:46:36;17.10;44.10
254;DHT22;590;48.772;8.846;2023-07-08T02:49:04;17.10;45.40
254;DHT22;590;48.772;8.846;2023-07-08T02:51:32;17.00;45.50
254;DHT22;590;48.772;8.846;2023-07-08T02:54:00;17.10;45.30
254;DHT22;590;48.772;8.846;2023-07-08T02:56:28;17.10;46.20
254;DHT22;590;48.772;8.846;2023-07-08T02:58:56;17.10;44.90
254;DHT22;590;48.772;8.846;2023-07-08T03:01:26;17.10;44.10
254;DHT22;590;48.772;8.846;2023-07-08T03:03:54;17.10;44.20
254;DHT22;590;48.772;8.846;2023-07-08T03:06:27;17.10;44.60
254;DHT22;590;48.772;8.846;2023-07-08T03:08:55;17.00;45.90
254;DHT22;590;48.772;8.846;2023-07-08T03:11:23;17.00;46.40
254;DHT22;590;48.772;8.846;2023-07-08T03:13:51;17.00;44.70
254;DHT22;590;48.772;8.846;2023-07-08T03:16:19;16.90;45.90
254;DHT22;590;48.772;8.846;2023-07-08T03:18:49;17.00;46.30
254;DHT22;590;48.772;8.846;2023-07-08T03:21:18;16.90;45.10
254;DHT22;590;48.772;8.846;2023-07-08T03:23:47;16.90;45.40
254;DHT22;590;48.772;8.846;2023-07-08T03:26:18;16.90;46.20
254;DHT22;590;48.772;8.846;2023-07-08T03:28:47;16.90;45.70
254;DHT22;590;48.772;8.846;2023-07-08T03:31:15;16.90;45.10
254;DHT22;590;48.772;8.846;2023-07-08T03:33:43;17.00;44.60
254;DHT22;590;48.772;8.846;2023-07-08T03:36:15;17.00;43.60
254;DHT22;590;48.772;8.846;2023-07-08T03:38:50;17.00;44.00
254;DHT22;590;48.772;8.846;2023-07-08T03:41:19;17.00;43.70
254;DHT22;590;48.772;8.846;2023-07-08T03:43:47;16.90;43.60
254;DHT22;590;48.772;8.846;2023-07-08T03:46:19;16.90;44.10
254;DHT22;590;48.772;8.846;2023-07-08T03:48:48;17.00;43.70
254;DHT22;590;48.772;8.846;2023-07-08T03:51:21;17.00;43.80
254;DHT22;590;48.772;8.846;2023-07-08T03:53:50;17.00;43.90
254;DHT22;590;48.772;8.846;2023-07-08T03:56:19;17.10;43.80
254;DHT22;590;48.772;8.846;2023-07-08T03:58:47;17.20;43.10
254;DHT22;590;48.772;8.846;2023-07-08T04:01:16;17.10;43.10
254;DHT22;590;48.772;8.846;2023-07-08T04:03:44;17.10;44.30
254;DHT22;590;48.772;8.846;2023-07-08T04:06:13;17.10;44.90
254;DHT22;590;48.772;8.846;2023-07-08T04:08:43;17.20;44.40
254;DHT22;590;48.772;8.846;2023-07-08T04:11:13;17.30;44.70
254;DHT22;590;48.772;8.846;2023-07-08T04:13:41;17.50;44.20
254;DHT22;590;48.772;8.846;2023-07-08T04:16:15;17.60;42.20
254;DHT22;590;48.772;8.846;2023-07-08T04:18:46;17.80;41.30
254;DHT22;590;48.772;8.846;2023-07-08T04:21:17;18.00;41.20
254;DHT22;590;48.772;8.846;2023-07-08T04:23:50;18.10;39.10
254;DHT22;590;48.772;8.846;2023-07-08T04:26:19;18.30;38.90
254;DHT22;590;48.772;8.846;2023-07-08T04:28:47;18.70;39.20
254;DHT22;590;48.772;8.846;2023-07-08T04:31:15;19.20;34.70
254;DHT22;590;48.772;8.846;2023-07-08T04:33:43;19.50;32.10
254;DHT22;590;48.772;8.846;2023-07-08T04:36:13;19.70;28.80
254;DHT22;590;48.772;8.846;2023-07-08T04:38:41;19.70;27.80
254;DHT22;590;48.772;8.846;2023-07-08T04:41:15;19.80;29.70
254;DHT22;590;48.772;8.846;2023-07-08T04:43:43;19.90;27.00
254;DHT22;590;48.772;8.846;2023-07-08T04:46:19;20.00;27.30
254;DHT22;590;48.772;8.846;2023-07-08T04:48:48;20.10;25.90
254;DHT22;590;48.772;8.846;2023-07-08T04:51:16;20.10;26.90
254;DHT22;590;48.772;8.846;2023-07-08T04:53:46;20.10;25.90
254;DHT22;590;48.772;8.846;2023-07-08T04:56:15;20.10;25.90
254;DHT22;590;48.772;8.846;2023-07-08T04:58:43;20.10;25.00
254;DHT22;590;48.772;8.846;2023-07-08T05:01:11;20.10;25.90
254;DHT22;590;48.772;8.846;2023-07-08T05:03:39;20.10;27.50
254;DHT22;590;48.772;8.846;2023-07-08T05:06:07;20.50;31.80
254;DHT22;590;48.772;8.846;2023-07-08T05:08:35;22.10;26.80
254;DHT22;590;48.772;8.846;2023-07-08T05:11:03;24.10;18.60
254;DHT22;590;48.772;8.846;2023-07-08T05:13:33;25.80;8.70
254;DHT22;590;48.772;8.846;2023-07-08T05:16:01;26.90;6.10
254;DHT22;590;48.772;8.846;2023-07-08T05:18:29;27.50;4.60
254;DHT22;590;48.772;8.846;2023-07-08T05:20:57;27.20;5.00
254;DHT22;590;48.772;8.846;2023-07-08T05:23:25;27.00;7.00
254;DHT22;590;48.772;8.846;2023-07-08T05:25:53;27.80;6.10
254;DHT22;590;48.772;8.846;2023-07-08T05:28:22;28.40;4.90
254;DHT22;590;48.772;8.846;2023-07-08T05:30:54;28.60;3.50
254;DHT22;590;48.772;8.846;2023-07-08T05:33:22;28.40;2.80
254;DHT22;590;48.772;8.846;2023-07-08T05:35:50;28.00;2.60
254;DHT22;590;48.772;8.846;2023-07-08T05:38:19;27.60;2.40
254;DHT22;590;48.772;8.846;2023-07-08T05:40:48;27.30;2.80
254;DHT22;590;48.772;8.846;2023-07-08T05:43:17;27.20;3.80
254;DHT22;590;48.772;8.846;2023-07-08T05:45:45;27.40;3.80
254;DHT22;590;48.772;8.846;2023-07-08T05:48:32;27.70;3.30
254;DHT22;590;48.772;8.846;2023-07-08T05:51:00;28.10;2.90
254;DHT22;590;48.772;8.846;2023-07-08T05:53:28;28.20;1.90
254;DHT22;590;48.772;8.846;2023-07-08T05:55:56;28.30;1.70
254;DHT22;590;48.772;8.846;2023-07-08T05:58:24;28.40;2.10
254;DHT22;590;48.772;8.846;2023-07-08T06:00:56;28.50;2.50
254;DHT22;590;48.772;8.846;2023-07-08T06:03:25;28.60;2.80
254;DHT22;590;48.772;8.846;2023-07-08T06:05:55;28.70;2.40
254;DHT22;590;48.772;8.846;2023-07-08T06:08:23;28.90;1.50
254;DHT22;590;48.772;8.846;2023-07-08T06:10:51;29.10;1.00
254;DHT22;590;48.772;8.846;2023-07-08T06:13:19;29.30;1.00
254;DHT22;590;48.772;8.846;2023-07-08T06:15:47;29.60;1.00
254;DHT22;590;48.772;8.846;2023-07-08T06:18:15;30.00;1.00
254;DHT22;590;48.772;8.846;2023-07-08T06:20:51;30.50;1.00
254;DHT22;590;48.772;8.846;2023-07-08T06:23:20;31.10;1.00
254;DHT22;590;48.772;8.846;2023-07-08T06:25:48;31.50;1.00
254;DHT22;590;48.772;8.846;2023-07-08T06:28:17;31.80;1.00
254;DHT22;590;48.772;8.846;2023-07-08T06:30:45;32.10;1.00
254;DHT22;590;48.772;8.846;2023-07-08T06:33:13;32.40;1.00
254;DHT22;590;48.772;8.846;2023-07-08T06:35:42;32.90;1.00
254;DHT22;590;48.772;8.846;2023-07-08T06:38:10;33.30;1.00
254;DHT22;590;48.772;8.846;2023-07-08T06:40:40;33.20;1.00
254;DHT22;590;48.772;8.846;2023-07-08T06:43:08;32.80;1.00
254;DHT22;590;48.772;8.846;2023-07-08T06:45:36;32.50;1.00
254;DHT22;590;48.772;8.846;2023-07-08T06:48:04;32.00;1.00
254;DHT22;590;48.772;8.846;2023-07-08T06:50:32;31.50;1.00
254;DHT22;590;48.772;8.846;2023-07-08T06:53:00;31.00;1.00
254;DHT22;590;48.772;8.846;2023-07-08T06:55:28;30.60;1.00
254;DHT22;590;48.772;8.846;2023-07-08T06:57:58;30.20;1.00
254;DHT22;590;48.772;8.846;2023-07-08T07:00:26;29.90;1.00
254;DHT22;590;48.772;8.846;2023-07-08T07:02:54;29.60;1.00
254;DHT22;590;48.772;8.846;2023-07-08T07:05:22;29.30;1.10
254;DHT22;590;48.772;8.846;2023-07-08T07:07:50;29.10;1.40
254;DHT22;590;48.772;8.846;2023-07-08T07:10:19;28.90;2.00
254;DHT22;590;48.772;8.846;2023-07-08T07:12:47;28.70;2.30
254;DHT22;590;48.772;8.846;2023-07-08T07:15:17;28.50;1.70
254;DHT22;590;48.772;8.846;2023-07-08T07:17:44;28.40;2.90
254;DHT22;590;48.772;8.846;2023-07-08T07:20:13;28.30;2.80
254;DHT22;590;48.772;8.846;2023-07-08T07:22:41;28.20;3.50
254;DHT22;590;48.772;8.846;2023-07-08T07:25:09;28.20;3.70
254;DHT22;590;48.772;8.846;2023-07-08T07:27:37;28.20;4.00
254;DHT22;590;48.772;8.846;2023-07-08T07:30:07;28.20;3.50
254;DHT22;590;48.772;8.846;2023-07-08T07:32:41;28.50;4.10
254;DHT22;590;48.772;8.846;2023-07-08T07:35:10;29.10;2.90
254;DHT22;590;48.772;8.846;2023-07-08T07:37:40;29.70;2.10
254;DHT22;590;48.772;8.846;2023-07-08T07:40:09;30.00;1.90
254;DHT22;590;48.772;8.846;2023-07-08T07:42:39;30.40;1.70
254;DHT22;590;48.772;8.846;2023-07-08T07:45:09;30.80;1.00
254;DHT22;590;48.772;8.846;2023-07-08T07:47:38;31.20;1.00
254;DHT22;590;48.772;8.846;2023-07-08T07:50:09;31.90;1.00
254;DHT22;590;48.772;8.846;2023-07-08T07:52:37;32.80;1.00
254;DHT22;590;48.772;8.846;2023-07-08T07:55:07;33.20;1.00
254;DHT22;590;48.772;8.846;2023-07-08T07:57:35;33.20;1.00
254;DHT22;590;48.772;8.846;2023-07-08T08:00:04;33.20;1.00
254;DHT22;590;48.772;8.846;2023-07-08T08:02:32;33.20;1.00
254;DHT22;590;48.772;8.846;2023-07-08T08:05:00;33.50;1.00
254;DHT22;590;48.772;8.846;2023-07-08T08:07:30;34.10;1.00
254;DHT22;590;48.772;8.846;2023-07-08T08:09:58;34.40;1.00
254;DHT22;590;48.772;8.846;2023-07-08T08:12:26;34.30;1.00
254;DHT22;590;48.772;8.846;2023-07-08T08:15:07;33.90;1.00
254;DHT22;590;48.772;8.846;2023-07-08T08:17:36;33.40;1.00
254;DHT22;590;48.772;8.846;2023-07-08T08:20:05;33.00;1.00
254;DHT22;590;48.772;8.846;2023-07-08T08:22:35;32.70;1.00
254;DHT22;590;48.772;8.846;2023-07-08T08:25:03;32.50;1.00
254;DHT22;590;48.772;8.846;2023-07-08T08:27:31;32.30;1.00
254;DHT22;590;48.772;8.846;2023-07-08T08:29:59;32.40;1.00
254;DHT22;590;48.772;8.846;2023-07-08T08:32:27;33.10;1.00
254;DHT22;590;48.772;8.846;2023-07-08T08:34:55;34.00;1.00
254;DHT22;590;48.772;8.846;2023-07-08T08:37:26;34.60;1.00
254;DHT22;590;48.772;8.846;2023-07-08T08:39:55;34.80;1.00
254;DHT22;590;48.772;8.846;2023-07-08T08:42:26;34.60;1.00
254;DHT22;590;48.772;8.846;2023-07-08T08:44:55;34.30;1.00
254;DHT22;590;48.772;8.846;2023-07-08T08:47:33;34.10;1.00
254;DHT22;590;48.772;8.846;2023-07-08T08:50:12;34.30;1.00
254;DHT22;590;48.772;8.846;2023-07-08T08:52:46;34.70;1.00
254;DHT22;590;48.772;8.846;2023-07-08T08:55:16;35.10;1.00
254;DHT22;590;48.772;8.846;2023-07-08T08:57:48;35.60;1.00
254;DHT22;590;48.772;8.846;2023-07-08T09:00:22;36.00;1.00
254;DHT22;590;48.772;8.846;2023-07-08T09:02:57;36.40;1.00
254;DHT22;590;48.772;8.846;2023-07-08T09:05:27;36.40;1.00
254;DHT22;590;48.772;8.846;2023-07-08T09:08:01;36.60;1.00
254;DHT22;590;48.772;8.846;2023-07-08T09:10:43;36.50;1.00
254;DHT22;590;48.772;8.846;2023-07-08T09:13:26;36.10;1.00
254;DHT22;590;48.772;8.846;2023-07-08T09:16:06;35.70;1.00
254;DHT22;590;48.772;8.846;2023-07-08T09:18:40;35.60;1.00
254;DHT22;590;48.772;8.846;2023-07-08T09:21:18;35.60;1.00
254;DHT22;590;48.772;8.846;2023-07-08T09:23:48;35.60;1.00
254;DHT22;590;48.772;8.846;2023-07-08T09:26:22;35.70;1.00
254;DHT22;590;48.772;8.846;2023-07-08T09:28:52;36.10;1.00
254;DHT22;590;48.772;8.846;2023-07-08T09:31:23;36.00;1.00
254;DHT22;590;48.772;8.846;2023-07-08T09:33:53;36.00;1.00
254;DHT22;590;48.772;8.846;2023-07-08T09:36:24;36.20;1.00
254;DHT22;590;48.772;8.846;2023-07-08T09:38:53;36.60;1.00
254;DHT22;590;48.772;8.846;2023-07-08T09:41:33;36.90;1.00
254;DHT22;590;48.772;8.846;2023-07-08T09:44:08;37.20;1.00
254;DHT22;590;48.772;8.846;2023-07-08T09:46:38;37.50;1.00
254;DHT22;590;48.772;8.846;2023-07-08T09:49:16;37.60;1.00
254;DHT22;590;48.772;8.846;2023-07-08T09:51:45;37.40;1.00
254;DHT22;590;48.772;8.846;2023-07-08T09:54:13;37.30;1.00
254;DHT22;590;48.772;8.846;2023-07-08T09:56:46;37.10;1.00
254;DHT22;590;48.772;8.846;2023-07-08T09:59:19;36.80;1.00
254;DHT22;590;48.772;8.846;2023-07-08T10:01:49;36.60;1.00
254;DHT22;590;48.772;8.846;2023-07-08T10:04:19;36.40;1.00
254;DHT22;590;48.772;8.846;2023-07-08T10:06:47;36.30;1.00
254;DHT22;590;48.772;8.846;2023-07-08T10:09:24;36.10;1.00
254;DHT22;590;48.772;8.846;2023-07-08T10:11:58;35.90;1.00
254;DHT22;590;48.772;8.846;2023-07-08T10:14:46;35.70;1.00
254;DHT22;590;48.772;8.846;2023-07-08T10:17:18;35.50;1.00
254;DHT22;590;48.772;8.846;2023-07-08T10:19:47;35.10;1.00
254;DHT22;590;48.772;8.846;2023-07-08T10:22:24;34.80;1.00
254;DHT22;590;48.772;8.846;2023-07-08T10:25:03;34.90;1.00
254;DHT22;590;48.772;8.846;2023-07-08T10:27:40;34.90;1.00
254;DHT22;590;48.772;8.846;2023-07-08T10:30:19;34.90;1.00
254;DHT22;590;48.772;8.846;2023-07-08T10:33:12;34.70;1.00
254;DHT22;590;48.772;8.846;2023-07-08T10:36:05;34.60;1.00
254;DHT22;590;48.772;8.846;2023-07-08T10:38:46;34.60;1.00
254;DHT22;590;48.772;8.846;2023-07-08T10:41:24;34.70;1.00
254;DHT22;590;48.772;8.846;2023-07-08T10:44:02;34.70;1.00
254;DHT22;590;48.772;8.846;2023-07-08T10:46:40;34.90;1.00
254;DHT22;590;48.772;8.846;2023-07-08T10:49:28;34.90;1.00
254;DHT22;590;48.772;8.846;2023-07-08T10:52:07;35.00;1.00
254;DHT22;590;48.772;8.846;2023-07-08T10:54:55;35.00;1.00
254;DHT22;590;48.772;8.846;2023-07-08T11:00:29;35.50;1.00
254;DHT22;590;48.772;8.846;2023-07-08T11:03:16;35.50;1.00
254;DHT22;590;48.772;8.846;2023-07-08T11:05:52;35.40;1.00
254;DHT22;590;48.772;8.846;2023-07-08T11:08:27;35.50;1.00
254;DHT22;590;48.772;8.846;2023-07-08T11:10:59;35.80;1.00
254;DHT22;590;48.772;8.846;2023-07-08T11:13:47;35.70;1.00
254;DHT22;590;48.772;8.846;2023-07-08T11:16:22;35.50;1.00
254;DHT22;590;48.772;8.846;2023-07-08T11:18:55;35.50;1.00
254;DHT22;590;48.772;8.846;2023-07-08T11:21:29;35.30;1.00
254;DHT22;590;48.772;8.846;2023-07-08T11:24:03;35.10;1.00
254;DHT22;590;48.772;8.846;2023-07-08T11:26:36;35.20;1.00
254;DHT22;590;48.772;8.846;2023-07-08T11:29:15;35.40;1.00
254;DHT22;590;48.772;8.846;2023-07-08T11:31:47;35.50;1.00
254;DHT22;590;48.772;8.846;2023-07-08T11:34:18;35.40;1.00
254;DHT22;590;48.772;8.846;2023-07-08T11:36:48;34.90;1.00
254;DHT22;590;48.772;8.846;2023-07-08T11:39:27;34.40;1.00
254;DHT22;590;48.772;8.846;2023-07-08T11:42:05;34.00;1.00
254;DHT22;590;48.772;8.846;2023-07-08T11:44:42;33.90;1.00
254;DHT22;590;48.772;8.846;2023-07-08T11:47:17;34.00;1.00
254;DHT22;590;48.772;8.846;2023-07-08T11:49:47;34.20;1.00
254;DHT22;590;48.772;8.846;2023-07-08T11:52:18;34.10;1.00
254;DHT22;590;48.772;8.846;2023-07-08T11:57:19;33.30;1.00
254;DHT22;590;48.772;8.846;2023-07-08T12:00:14;33.00;1.00
254;DHT22;590;48.772;8.846;2023-07-08T12:02:51;33.10;1.00
254;DHT22;590;48.772;8.846;2023-07-08T12:05:30;33.30;1.00
254;DHT22;590;48.772;8.846;2023-07-08T12:07:59;33.70;1.00
254;DHT22;590;48.772;8.846;2023-07-08T12:10:34;33.90;1.00
254;DHT22;590;48.772;8.846;2023-07-08T12:13:11;34.10;1.00
254;DHT22;590;48.772;8.846;2023-07-08T12:15:40;34.10;1.00
254;DHT22;590;48.772;8.846;2023-07-08T12:18:13;34.10;1.00
254;DHT22;590;48.772;8.846;2023-07-08T12:20:44;34.00;1.00
254;DHT22;590;48.772;8.846;2023-07-08T12:23:17;33.80;1.00
254;DHT22;590;48.772;8.846;2023-07-08T12:25:45;33.80;1.00
254;DHT22;590;48.772;8.846;2023-07-08T12:28:15;33.70;1.00
254;DHT22;590;48.772;8.846;2023-07-08T12:30:44;33.70;1.00
254;DHT22;590;48.772;8.846;2023-07-08T12:33:16;33.90;1.00
254;DHT22;590;48.772;8.846;2023-07-08T12:35:46;34.20;1.00
254;DHT22;590;48.772;8.846;2023-07-08T12:38:19;34.30;1.00
254;DHT22;590;48.772;8.846;2023-07-08T12:40:50;34.20;1.00
254;DHT22;590;48.772;8.846;2023-07-08T12:43:19;34.00;1.00
254;DHT22;590;48.772;8.846;2023-07-08T12:45:48;34.00;1.00
254;DHT22;590;48.772;8.846;2023-07-08T12:48:16;34.00;1.00
254;DHT22;590;48.772;8.846;2023-07-08T12:50:44;34.00;1.00
254;DHT22;590;48.772;8.846;2023-07-08T12:53:12;34.10;1.00
254;DHT22;590;48.772;8.846;2023-07-08T12:55:42;34.10;1.00
254;DHT22;590;48.772;8.846;2023-07-08T12:58:13;34.00;1.00
254;DHT22;590;48.772;8.846;2023-07-08T13:00:43;34.00;1.00
254;DHT22;590;48.772;8.846;2023-07-08T13:03:15;33.90;1.00
254;DHT22;590;48.772;8.846;2023-07-08T13:05:44;33.80;1.00
254;DHT22;590;48.772;8.846;2023-07-08T13:08:14;33.60;1.00
254;DHT22;590;48.772;8.846;2023-07-08T13:10:43;33.50;1.00
254;DHT22;590;48.772;8.846;2023-07-08T13:13:15;33.50;1.00
254;DHT22;590;48.772;8.846;2023-07-08T13:15:49;33.50;1.00
254;DHT22;590;48.772;8.846;2023-07-08T13:18:19;33.50;1.00
254;DHT22;590;48.772;8.846;2023-07-08T13:20:50;33.60;1.00
254;DHT22;590;48.772;8.846;2023-07-08T13:23:19;33.60;1.00
254;DHT22;590;48.772;8.846;2023-07-08T13:25:50;33.50;1.00
254;DHT22;590;48.772;8.846;2023-07-08T13:28:19;33.50;1.00
254;DHT22;590;48.772;8.846;2023-07-08T13:30:53;33.30;1.00
254;DHT22;590;48.772;8.846;2023-07-08T13:33:22;33.30;1.00
254;DHT22;590;48.772;8.846;2023-07-08T13:35:51;33.30;1.00
254;DHT22;590;48.772;8.846;2023-07-08T13:38:22;33.40;1.00
254;DHT22;590;48.772;8.846;2023-07-08T13:40:53;33.40;1.00
254;DHT22;590;48.772;8.846;2023-07-08T13:43:24;33.20;1.00
254;DHT22;590;48.772;8.846;2023-07-08T13:45:54;33.20;1.00
254;DHT22;590;48.772;8.846;2023-07-08T13:48:26;33.20;1.00
254;DHT22;590;48.772;8.846;2023-07-08T13:50:58;33.20;1.00
254;DHT22;590;48.772;8.846;2023-07-08T13:53:41;33.20;1.00
254;DHT22;590;48.772;8.846;2023-07-08T13:56:13;33.30;1.00
254;DHT22;590;48.772;8.846;2023-07-08T13:58:43;33.40;1.00
254;DHT22;590;48.772;8.846;2023-07-08T14:01:16;33.30;1.00
254;DHT22;590;48.772;8.846;2023-07-08T14:03:49;33.30;1.00
254;DHT22;590;48.772;8.846;2023-07-08T14:06:19;33.30;1.00
254;DHT22;590;48.772;8.846;2023-07-08T14:08:47;33.30;1.00
254;DHT22;590;48.772;8.846;2023-07-08T14:11:15;33.20;1.00
254;DHT22;590;48.772;8.846;2023-07-08T14:13:43;33.20;1.00
254;DHT22;590;48.772;8.846;2023-07-08T14:16:22;33.30;1.00
254;DHT22;590;48.772;8.846;2023-07-08T14:18:51;33.40;1.00
254;DHT22;590;48.772;8.846;2023-07-08T14:21:20;33.50;1.00
254;DHT22;590;48.772;8.846;2023-07-08T14:23:47;33.70;1.00
254;DHT22;590;48.772;8.846;2023-07-08T14:26:15;33.70;1.00
254;DHT22;590;48.772;8.846;2023-07-08T14:28:43;33.80;1.00
254;DHT22;590;48.772;8.846;2023-07-08T14:31:14;33.80;1.00
254;DHT22;590;48.772;8.846;2023-07-08T14:33:44;33.80;1.00
254;DHT22;590;48.772;8.846;2023-07-08T14:36:12;33.90;1.00
254;DHT22;590;48.772;8.846;2023-07-08T14:38:41;33.80;1.00
254;DHT22;590;48.772;8.846;2023-07-08T14:41:09;33.70;1.00
254;DHT22;590;48.772;8.846;2023-07-08T14:43:37;33.60;1.00
254;DHT22;590;48.772;8.846;2023-07-08T14:46:09;33.40;1.00
254;DHT22;590;48.772;8.846;2023-07-08T14:48:37;33.30;1.00
254;DHT22;590;48.772;8.846;2023-07-08T14:51:08;33.30;1.00
254;DHT22;590;48.772;8.846;2023-07-08T14:53:36;33.40;1.00
254;DHT22;590;48.772;8.846;2023-07-08T14:56:14;33.60;1.00
254;DHT22;590;48.772;8.846;2023-07-08T14:58:44;33.50;1.00
254;DHT22;590;48.772;8.846;2023-07-08T15:01:18;33.50;1.00
254;DHT22;590;48.772;8.846;2023-07-08T15:03:46;33.50;1.00
254;DHT22;590;48.772;8.846;2023-07-08T15:06:16;33.50;1.00
254;DHT22;590;48.772;8.846;2023-07-08T15:08:44;33.50;1.00
254;DHT22;590;48.772;8.846;2023-07-08T15:11:13;33.60;1.00
254;DHT22;590;48.772;8.846;2023-07-08T15:13:42;33.60;1.00
254;DHT22;590;48.772;8.846;2023-07-08T15:16:13;33.40;1.00
254;DHT22;590;48.772;8.846;2023-07-08T15:18:42;33.10;1.00
254;DHT22;590;48.772;8.846;2023-07-08T15:21:12;32.90;1.00
254;DHT22;590;48.772;8.846;2023-07-08T15:23:42;32.80;1.00
254;DHT22;590;48.772;8.846;2023-07-08T15:26:10;32.60;1.00
254;DHT22;590;48.772;8.846;2023-07-08T15:28:40;32.50;1.00
254;DHT22;590;48.772;8.846;2023-07-08T15:31:15;32.40;1.00
254;DHT22;590;48.772;8.846;2023-07-08T15:33:44;32.20;1.00
254;DHT22;590;48.772;8.846;2023-07-08T15:36:12;32.30;1.00
254;DHT22;590;48.772;8.846;2023-07-08T15:38:43;32.30;1.00
254;DHT22;590;48.772;8.846;2023-07-08T15:41:17;32.40;1.00
254;DHT22;590;48.772;8.846;2023-07-08T15:43:46;32.50;1.00
254;DHT22;590;48.772;8.846;2023-07-08T15:46:15;32.40;1.00
254;DHT22;590;48.772;8.846;2023-07-08T15:48:43;32.40;1.00
254;DHT22;590;48.772;8.846;2023-07-08T15:51:13;32.30;1.00
254;DHT22;590;48.772;8.846;2023-07-08T15:53:42;32.20;1.00
254;DHT22;590;48.772;8.846;2023-07-08T15:56:12;32.10;1.00
254;DHT22;590;48.772;8.846;2023-07-08T15:58:42;32.00;1.00
254;DHT22;590;48.772;8.846;2023-07-08T16:01:16;31.90;1.00
254;DHT22;590;48.772;8.846;2023-07-08T16:03:47;31.90;1.00
254;DHT22;590;48.772;8.846;2023-07-08T16:06:16;31.80;1.00
254;DHT22;590;48.772;8.846;2023-07-08T16:08:46;31.80;1.00
254;DHT22;590;48.772;8.846;2023-07-08T16:11:15;31.80;1.00
254;DHT22;590;48.772;8.846;2023-07-08T16:13:44;31.70;1.00
254;DHT22;590;48.772;8.846;2023-07-08T16:16:13;31.80;1.00
254;DHT22;590;48.772;8.846;2023-07-08T16:18:41;31.80;1.00
254;DHT22;590;48.772;8.846;2023-07-08T16:21:09;31.70;1.00
254;DHT22;590;48.772;8.846;2023-07-08T16:23:39;31.70;1.00
254;DHT22;590;48.772;8.846;2023-07-08T16:26:12;31.70;1.00
254;DHT22;590;48.772;8.846;2023-07-08T16:28:43;31.80;1.00
254;DHT22;590;48.772;8.846;2023-07-08T16:31:12;31.80;1.00
254;DHT22;590;48.772;8.846;2023-07-08T16:33:41;31.80;1.00
254;DHT22;590;48.772;8.846;2023-07-08T16:36:12;31.80;1.00
254;DHT22;590;48.772;8.846;2023-07-08T16:38:41;31.70;1.00
254;DHT22;590;48.772;8.846;2023-07-08T16:41:11;31.70;1.00
254;DHT22;590;48.772;8.846;2023-07-08T16:43:40;31.70;1.00
254;DHT22;590;48.772;8.846;2023-07-08T16:46:08;31.60;1.00
254;DHT22;590;48.772;8.846;2023-07-08T16:48:37;31.60;1.00
254;DHT22;590;48.772;8.846;2023-07-08T16:51:11;31.60;1.00
254;DHT22;590;48.772;8.846;2023-07-08T16:53:40;31.50;1.00
254;DHT22;590;48.772;8.846;2023-07-08T16:56:11;31.50;1.00
254;DHT22;590;48.772;8.846;2023-07-08T16:58:39;31.40;1.00
254;DHT22;590;48.772;8.846;2023-07-08T17:01:10;31.30;1.00
254;DHT22;590;48.772;8.846;2023-07-08T17:03:41;31.30;1.00
254;DHT22;590;48.772;8.846;2023-07-08T17:06:10;31.30;1.00
254;DHT22;590;48.772;8.846;2023-07-08T17:08:40;31.30;1.00
254;DHT22;590;48.772;8.846;2023-07-08T17:11:08;31.30;1.00
254;DHT22;590;48.772;8.846;2023-07-08T17:13:38;31.30;1.00
254;DHT22;590;48.772;8.846;2023-07-08T17:16:12;31.40;1.00